createdAt,value
2018-06-10T00:02:07.310Z,19.40
2018-06-10T00:04:36.665Z,20.03
2018-06-10T00:07:05.230Z,20.13
2018-06-10T00:09:34.456Z,19.60
2018-06-10T00:12:03.054Z,20.07
2018-06-10T00:14:31.619Z,19.73
2018-06-10T00:17:00.215Z,18.50
2018-06-10T00:19:28.795Z,17.30
2018-06-10T00:21:57.384Z,14.73
2018-06-10T00:24:25.952Z,14.30
2018-06-10T00:26:54.585Z,14.43
2018-06-10T00:29:23.695Z,13.83
2018-06-10T00:31:52.770Z,13.27
2018-06-10T00:34:21.367Z,10.63
2018-06-10T00:36:49.950Z,11.60
2018-06-10T00:39:18.587Z,12.80
2018-06-10T00:41:48.027Z,11.77
2018-06-10T00:44:16.590Z,15.17
2018-06-10T00:46:46.202Z,16.83
2018-06-10T00:49:14.449Z,18.20
2018-06-10T00:51:43.024Z,19.00
2018-06-10T00:54:11.618Z,16.53
2018-06-10T00:56:50.291Z,13.93
2018-06-10T00:59:18.896Z,13.97
2018-06-10T01:01:48.389Z,15.37
2018-06-10T01:04:17.005Z,11.93
2018-06-10T01:06:45.565Z,14.27
2018-06-10T01:09:14.239Z,15.20
2018-06-10T01:11:43.432Z,15.10
2018-06-10T01:14:12.132Z,16.33
2018-06-10T01:16:40.766Z,18.90
2018-06-10T01:19:09.395Z,16.03
2018-06-10T01:21:39.400Z,17.37
2018-06-10T01:24:08.036Z,18.80
2018-06-10T01:26:42.069Z,19.70
2018-06-10T01:29:10.647Z,17.70
2018-06-10T01:31:39.232Z,21.53
2018-06-10T01:34:08.283Z,18.73
2018-06-10T01:36:36.823Z,19.07
2018-06-10T01:39:07.649Z,20.90
2018-06-10T01:41:36.242Z,20.07
2018-06-10T01:44:05.576Z,19.97
2018-06-10T01:46:34.163Z,21.00
2018-06-10T01:49:04.903Z,21.23
2018-06-10T01:51:33.755Z,20.77
2018-06-10T01:54:02.495Z,22.63
2018-06-10T01:56:31.496Z,22.40
2018-06-10T01:59:00.376Z,19.70
2018-06-10T02:01:28.969Z,21.10
2018-06-10T02:03:57.964Z,22.27
2018-06-10T02:06:26.533Z,20.87
2018-06-10T02:08:55.126Z,25.13
2018-06-10T02:11:23.713Z,18.83
2018-06-10T02:13:52.238Z,21.23
2018-06-10T02:16:20.807Z,24.23
2018-06-10T02:18:49.355Z,24.30
2018-06-10T02:24:00.969Z,21.20
2018-06-10T02:26:29.519Z,22.40
2018-06-10T02:28:58.124Z,24.40
2018-06-10T02:31:26.724Z,26.07
2018-06-10T02:33:55.295Z,24.73
2018-06-10T02:36:23.853Z,23.03
2018-06-10T02:38:52.361Z,27.07
2018-06-10T02:41:20.962Z,22.77
2018-06-10T02:43:49.563Z,27.17
2018-06-10T02:46:18.211Z,29.20
2018-06-10T02:48:48.123Z,24.97
2018-06-10T02:51:17.386Z,28.20
2018-06-10T02:53:46.625Z,29.40
2018-06-10T02:56:15.246Z,29.23
2018-06-10T02:58:43.835Z,33.97
2018-06-10T03:01:12.468Z,31.87
2018-06-10T03:03:41.047Z,37.23
2018-06-10T03:06:11.312Z,35.30
2018-06-10T03:08:40.494Z,25.83
2018-06-10T03:11:09.090Z,26.53
2018-06-10T03:13:37.718Z,24.10
2018-06-10T03:16:06.281Z,29.83
2018-06-10T03:18:34.821Z,26.77
2018-06-10T03:21:04.268Z,28.23
2018-06-10T03:23:33.901Z,29.27
2018-06-10T03:26:03.481Z,28.33
2018-06-10T03:28:32.054Z,30.93
2018-06-10T03:31:00.667Z,29.30
2018-06-10T03:33:30.227Z,28.10
2018-06-10T03:35:58.868Z,32.53
2018-06-10T03:38:29.339Z,33.03
2018-06-10T03:40:57.948Z,33.93
2018-06-10T03:43:27.127Z,30.70
2018-06-10T03:45:55.626Z,33.17
2018-06-10T03:48:24.203Z,34.43
2018-06-10T03:50:52.778Z,29.90
2018-06-10T03:53:21.334Z,33.87
2018-06-10T03:55:49.873Z,31.60
2018-06-10T03:58:21.279Z,29.10
2018-06-10T04:00:49.817Z,29.60
2018-06-10T04:03:18.449Z,30.33
2018-06-10T04:05:47.090Z,31.83
2018-06-10T04:08:15.653Z,34.60
2018-06-10T04:10:44.858Z,31.63
2018-06-10T04:13:13.873Z,31.57
2018-06-10T04:15:42.718Z,35.53
2018-06-10T04:18:11.275Z,33.53
2018-06-10T04:20:39.843Z,30.50
2018-06-10T04:23:08.474Z,35.87
2018-06-10T04:25:37.140Z,30.53
2018-06-10T04:28:05.954Z,32.43
2018-06-10T04:30:35.220Z,29.93
2018-06-10T04:33:03.430Z,32.53
2018-06-10T04:35:32.400Z,28.30
2018-06-10T04:38:00.995Z,30.13
2018-06-10T04:40:29.668Z,32.30
2018-06-10T04:42:58.197Z,33.53
2018-06-10T04:45:26.754Z,33.27
2018-06-10T04:47:55.305Z,31.87
2018-06-10T04:50:23.917Z,32.20
2018-06-10T04:52:53.296Z,33.53
2018-06-10T04:55:22.850Z,35.53
2018-06-10T04:57:51.450Z,44.23
2018-06-10T05:00:20.007Z,39.17
2018-06-10T05:02:49.242Z,35.93
2018-06-10T05:05:18.551Z,36.87
2018-06-10T05:07:47.073Z,42.53
2018-06-10T05:10:16.894Z,36.83
2018-06-10T05:12:45.460Z,41.50
2018-06-10T05:15:13.981Z,46.13
2018-06-10T05:17:42.561Z,46.13
2018-06-10T05:20:11.089Z,42.03
2018-06-10T05:22:39.285Z,39.37
2018-06-10T05:25:07.817Z,40.07
2018-06-10T05:27:36.346Z,35.83
2018-06-10T05:30:06.954Z,41.17
2018-06-10T05:32:35.523Z,43.00
2018-06-10T05:35:04.093Z,41.07
2018-06-10T05:37:33.184Z,39.27
2018-06-10T05:40:04.963Z,39.70
2018-06-10T05:42:33.449Z,35.57
2018-06-10T05:45:01.962Z,41.83
2018-06-10T05:47:30.554Z,39.13
2018-06-10T05:49:59.771Z,36.50
2018-06-10T05:52:28.333Z,36.70
2018-06-10T05:54:56.924Z,44.07
2018-06-10T05:57:25.468Z,48.10
2018-06-10T05:59:54.071Z,45.30
2018-06-10T06:02:22.831Z,41.90
2018-06-10T06:04:51.642Z,44.03
2018-06-10T06:07:20.181Z,50.40
2018-06-10T06:09:49.298Z,47.43
2018-06-10T06:12:17.902Z,47.27
2018-06-10T06:14:46.488Z,52.80
2018-06-10T06:17:15.050Z,52.43
2018-06-10T06:19:43.654Z,44.37
2018-06-10T06:22:12.870Z,47.07
2018-06-10T06:24:41.417Z,50.10
2018-06-10T06:27:09.917Z,47.67
2018-06-10T06:29:38.460Z,52.30
2018-06-10T06:32:07.026Z,48.37
2018-06-10T06:34:36.585Z,46.30
2018-06-10T06:37:05.094Z,43.10
2018-06-10T06:39:34.558Z,43.30
2018-06-10T06:42:03.061Z,41.20
2018-06-10T06:44:31.969Z,41.20
2018-06-10T06:47:00.511Z,42.43
2018-06-10T06:49:29.021Z,39.87
2018-06-10T06:51:57.557Z,44.30
2018-06-10T06:54:26.069Z,42.80
2018-06-10T06:56:55.190Z,42.90
2018-06-10T06:59:23.702Z,43.70
2018-06-10T07:01:52.209Z,41.23
2018-06-10T07:04:20.819Z,46.30
2018-06-10T07:06:49.254Z,37.90
2018-06-10T07:09:18.761Z,37.67
2018-06-10T07:11:47.637Z,41.90
2018-06-10T07:14:16.146Z,35.67
2018-06-10T07:16:44.657Z,35.40
2018-06-10T07:19:13.181Z,42.63
2018-06-10T07:21:41.694Z,41.00
2018-06-10T07:24:10.185Z,28.93
2018-06-10T07:26:39.357Z,30.97
2018-06-10T07:29:07.857Z,34.43
2018-06-10T07:31:37.376Z,24.60
2018-06-10T07:34:06.286Z,23.60
2018-06-10T07:36:35.078Z,24.83
2018-06-10T07:39:04.733Z,26.57
2018-06-10T07:41:33.234Z,23.67
2018-06-10T07:44:01.730Z,25.17
2018-06-10T07:46:31.288Z,27.97
2018-06-10T07:49:00.837Z,25.67
2018-06-10T07:51:29.388Z,24.40
2018-06-10T07:53:58.951Z,23.13
2018-06-10T07:56:27.453Z,21.77
2018-06-10T07:58:55.969Z,21.33
2018-06-10T08:01:25.506Z,21.17
2018-06-10T08:03:54.037Z,16.57
2018-06-10T08:06:22.534Z,16.60
2018-06-10T08:08:51.033Z,16.37
2018-06-10T08:11:21.793Z,15.77
2018-06-10T08:13:50.289Z,14.27
2018-06-10T08:16:18.810Z,14.03
2018-06-10T08:18:47.452Z,15.97
2018-06-10T08:21:15.869Z,15.50
2018-06-10T08:23:44.376Z,15.90
2018-06-10T08:26:12.898Z,16.23
2018-06-10T08:28:42.451Z,13.80
2018-06-10T08:31:10.965Z,12.03
2018-06-10T08:33:39.516Z,12.87
2018-06-10T08:36:08.013Z,13.83
2018-06-10T08:38:36.504Z,12.20
2018-06-10T08:41:06.161Z,13.50
2018-06-10T08:43:34.654Z,13.07
2018-06-10T08:46:03.178Z,12.70
2018-06-10T08:48:31.721Z,12.57
2018-06-10T08:51:00.214Z,12.57
2018-06-10T08:53:29.524Z,12.50
2018-06-10T08:55:58.045Z,11.90
2018-06-10T08:58:26.550Z,11.80
2018-06-10T09:00:55.061Z,12.23
2018-06-10T09:03:24.517Z,11.13
2018-06-10T09:05:53.032Z,11.20
2018-06-10T09:08:21.565Z,9.50
2018-06-10T09:10:50.093Z,9.47
2018-06-10T09:13:18.261Z,9.73
2018-06-10T09:15:46.742Z,9.33
2018-06-10T09:18:15.275Z,10.47
2018-06-10T09:20:43.778Z,10.17
2018-06-10T09:23:12.317Z,9.80
2018-06-10T09:25:40.821Z,10.40
2018-06-10T09:28:09.323Z,11.23
2018-06-10T09:30:39.094Z,11.27
2018-06-10T09:33:07.838Z,10.57
2018-06-10T09:35:37.133Z,11.23
2018-06-10T09:38:08.875Z,9.70
2018-06-10T09:40:37.360Z,9.50
2018-06-10T09:43:05.993Z,9.33
2018-06-10T09:45:34.518Z,10.17
2018-06-10T09:48:03.033Z,10.20
2018-06-10T09:50:31.858Z,10.00
2018-06-10T09:53:01.074Z,9.70
2018-06-10T09:55:29.681Z,9.20
2018-06-10T09:57:58.090Z,10.20
2018-06-10T10:00:26.634Z,9.17
2018-06-10T10:02:55.190Z,9.37
2018-06-10T10:05:24.222Z,9.60
2018-06-10T10:07:54.641Z,8.63
2018-06-10T10:10:23.881Z,8.80
2018-06-10T10:12:52.374Z,8.93
2018-06-10T10:15:20.905Z,8.93
2018-06-10T10:17:49.471Z,8.20
2018-06-10T10:20:17.977Z,8.63
2018-06-10T10:22:47.463Z,9.40
2018-06-10T10:25:15.970Z,9.73
2018-06-10T10:27:44.745Z,11.03
2018-06-10T10:30:13.320Z,10.97
2018-06-10T10:32:41.818Z,10.53
2018-06-10T10:35:10.318Z,9.87
2018-06-10T10:37:38.898Z,10.17
2018-06-10T10:40:07.473Z,9.70
2018-06-10T10:42:35.969Z,10.10
2018-06-10T10:45:05.831Z,10.70
2018-06-10T10:47:34.655Z,10.50
2018-06-10T10:50:03.630Z,10.80
2018-06-10T10:52:32.785Z,10.97
2018-06-10T10:55:01.310Z,10.07
2018-06-10T10:57:29.829Z,10.73
2018-06-10T10:59:58.358Z,10.07
2018-06-10T11:02:26.846Z,9.67
2018-06-10T11:04:55.381Z,9.53
2018-06-10T11:07:25.146Z,9.00
2018-06-10T11:09:54.862Z,10.70
2018-06-10T11:12:23.354Z,9.23
2018-06-10T11:14:52.099Z,9.97
2018-06-10T11:17:21.634Z,10.47
2018-06-10T11:19:50.133Z,10.10
2018-06-10T11:22:18.929Z,10.30
2018-06-10T11:24:47.438Z,10.50
2018-06-10T11:27:16.665Z,10.00
2018-06-10T11:29:45.778Z,9.60
2018-06-10T11:32:14.743Z,9.63
2018-06-10T11:34:43.301Z,10.23
2018-06-10T11:37:11.953Z,9.80
2018-06-10T11:39:41.165Z,8.90
2018-06-10T11:42:09.747Z,9.23
2018-06-10T11:44:38.259Z,9.50
2018-06-10T11:47:06.844Z,8.87
2018-06-10T11:49:35.486Z,8.90
2018-06-10T11:52:04.507Z,8.10
2018-06-10T11:54:32.989Z,8.90
2018-06-10T11:57:02.174Z,9.33
2018-06-10T11:59:30.669Z,9.10
2018-06-10T12:02:02.310Z,9.27
2018-06-10T12:04:30.794Z,9.20
2018-06-10T12:06:59.297Z,9.93
2018-06-10T12:09:29.418Z,11.90
2018-06-10T12:11:57.965Z,14.07
2018-06-10T12:14:26.516Z,16.97
2018-06-10T12:16:55.115Z,18.93
2018-06-10T12:19:24.195Z,20.40
2018-06-10T12:21:52.741Z,16.90
2018-06-10T12:24:22.008Z,25.40
2018-06-10T12:26:50.517Z,14.13
2018-06-10T12:29:19.432Z,17.43
2018-06-10T12:31:48.026Z,20.87
2018-06-10T12:34:16.698Z,17.80
2018-06-10T12:36:45.282Z,18.73
2018-06-10T12:39:15.240Z,15.83
2018-06-10T12:41:43.820Z,11.17
2018-06-10T12:44:12.377Z,10.07
2018-06-10T12:46:40.946Z,10.67
2018-06-10T12:49:09.573Z,10.37
2018-06-10T12:51:38.606Z,11.17
2018-06-10T12:54:07.466Z,10.93
2018-06-10T12:56:36.769Z,10.93
2018-06-10T12:59:05.355Z,10.90
2018-06-10T13:01:51.307Z,11.50
2018-06-10T13:04:20.123Z,11.70
2018-06-10T13:06:49.012Z,10.67
2018-06-10T13:09:17.573Z,9.27
2018-06-10T13:11:47.195Z,9.10
2018-06-10T13:14:18.012Z,7.87
2018-06-10T13:16:58.261Z,7.40
2018-06-10T13:19:28.192Z,7.97
2018-06-10T13:21:56.813Z,7.67
2018-06-10T13:24:27.447Z,7.80
2018-06-10T13:26:56.313Z,7.77
2018-06-10T13:29:25.805Z,8.67
2018-06-10T13:31:55.198Z,8.40
2018-06-10T13:34:24.016Z,8.70
2018-06-10T13:37:03.085Z,8.97
2018-06-10T13:39:32.333Z,8.33
2018-06-10T13:42:00.953Z,8.63
2018-06-10T13:44:30.607Z,8.90
2018-06-10T13:47:00.460Z,8.93
2018-06-10T13:49:28.969Z,8.83
2018-06-10T13:51:57.518Z,8.83
2018-06-10T13:54:26.026Z,8.50
2018-06-10T13:56:55.462Z,8.93
2018-06-10T13:59:24.401Z,8.27
2018-06-10T14:01:52.864Z,8.87
2018-06-10T14:04:23.125Z,8.40
2018-06-10T14:06:52.946Z,8.97
2018-06-10T14:09:21.473Z,8.43
2018-06-10T14:11:50.164Z,8.20
2018-06-10T14:14:18.734Z,8.37
2018-06-10T14:16:47.241Z,8.53
2018-06-10T14:19:16.087Z,8.57
2018-06-10T14:21:46.677Z,8.17
2018-06-10T14:24:15.195Z,8.43
2018-06-10T14:26:43.941Z,8.93
2018-06-10T14:29:12.877Z,8.83
2018-06-10T14:31:42.022Z,8.77
2018-06-10T14:34:10.537Z,9.00
2018-06-10T14:36:39.434Z,9.03
2018-06-10T14:39:08.918Z,8.93
2018-06-10T14:41:37.442Z,9.93
2018-06-10T14:44:12.612Z,8.17
2018-06-10T14:46:41.374Z,8.77
2018-06-10T14:49:09.878Z,8.20
2018-06-10T14:51:38.931Z,8.30
2018-06-10T14:54:07.967Z,7.97
2018-06-10T14:56:36.510Z,8.00
2018-06-10T14:59:05.087Z,7.87
2018-06-10T15:01:33.684Z,7.80
2018-06-10T15:04:02.211Z,8.30
2018-06-10T15:06:30.943Z,7.73
2018-06-10T15:08:59.498Z,8.20
2018-06-10T15:11:27.990Z,7.73
2018-06-10T15:13:56.549Z,7.90
2018-06-10T15:16:25.061Z,7.67
2018-06-10T15:18:53.567Z,8.30
2018-06-10T15:21:22.109Z,8.83
2018-06-10T15:23:50.610Z,7.97
2018-06-10T15:26:19.153Z,7.63
2018-06-10T15:28:47.804Z,8.97
2018-06-10T15:31:16.406Z,7.93
2018-06-10T15:33:44.952Z,7.83
2018-06-10T15:36:13.547Z,8.50
2018-06-10T15:38:42.059Z,8.20
2018-06-10T15:41:10.601Z,8.00
2018-06-10T15:43:39.101Z,8.40
2018-06-10T15:46:07.609Z,8.00
2018-06-10T15:48:36.201Z,8.27
2018-06-10T15:51:04.782Z,7.70
2018-06-10T15:53:33.308Z,8.00
2018-06-10T15:56:02.838Z,7.17
2018-06-10T15:58:31.336Z,7.83
2018-06-10T16:00:59.826Z,7.60
2018-06-10T16:03:28.365Z,8.00
2018-06-10T16:05:56.884Z,7.93
2018-06-10T16:08:25.455Z,7.87
2018-06-10T16:10:54.250Z,7.53
2018-06-10T16:13:22.734Z,7.57
2018-06-10T16:15:51.344Z,7.40
2018-06-10T16:18:19.878Z,7.40
2018-06-10T16:20:49.034Z,7.90
2018-06-10T16:23:17.570Z,8.33
2018-06-10T16:25:49.414Z,8.20
2018-06-10T16:28:31.885Z,9.07
2018-06-10T16:31:00.428Z,8.40
2018-06-10T16:33:28.958Z,8.13
2018-06-10T16:35:57.470Z,8.03
2018-06-10T16:38:26.361Z,8.37
2018-06-10T16:41:08.749Z,7.93
2018-06-10T16:43:38.809Z,9.00
2018-06-10T16:46:08.350Z,9.37
2018-06-10T16:48:37.722Z,8.83
2018-06-10T16:51:06.445Z,8.97
2018-06-10T16:53:35.452Z,9.53
2018-06-10T16:56:11.506Z,9.03
2018-06-10T16:59:00.574Z,9.03
2018-06-10T17:01:34.964Z,8.90
2018-06-10T17:08:31.125Z,10.70
2018-06-10T17:10:59.731Z,10.03
2018-06-10T17:13:28.381Z,9.17
2018-06-10T17:15:57.020Z,10.27
2018-06-10T17:18:25.539Z,10.07
2018-06-10T17:20:54.122Z,9.53
2018-06-10T17:23:22.794Z,10.67
2018-06-10T17:25:51.305Z,10.47
2018-06-10T17:28:19.892Z,10.60
2018-06-10T17:30:48.366Z,11.17
2018-06-10T17:33:16.861Z,11.80
2018-06-10T17:35:46.350Z,10.37
2018-06-10T17:38:14.848Z,10.80
2018-06-10T17:40:43.370Z,11.40
2018-06-10T17:43:11.890Z,12.03
2018-06-10T17:45:40.461Z,11.77
2018-06-10T17:48:08.993Z,12.00
2018-06-10T17:50:37.810Z,12.00
2018-06-10T17:53:06.678Z,11.60
2018-06-10T17:55:35.202Z,11.73
2018-06-10T17:58:03.741Z,11.70
2018-06-10T18:00:32.295Z,11.43
2018-06-10T18:03:01.609Z,11.80
2018-06-10T18:05:32.158Z,12.80
2018-06-10T18:08:00.682Z,12.13
2018-06-10T18:10:29.398Z,12.20
2018-06-10T18:12:58.126Z,12.23
2018-06-10T18:15:26.650Z,11.70
2018-06-10T18:17:55.178Z,11.57
2018-06-10T18:20:23.782Z,12.77
2018-06-10T18:22:52.318Z,13.10
2018-06-10T18:25:20.942Z,13.00
2018-06-10T18:27:49.465Z,13.00
2018-06-10T18:30:18.000Z,13.17
2018-06-10T18:32:46.538Z,12.90
2018-06-10T18:35:15.071Z,13.77
2018-06-10T18:37:43.602Z,13.47
2018-06-10T18:40:12.158Z,13.90
2018-06-10T18:42:40.832Z,13.47
2018-06-10T18:45:09.627Z,13.60
2018-06-10T18:47:40.106Z,13.60
2018-06-10T18:50:08.804Z,14.00
2018-06-10T18:52:37.536Z,13.47
2018-06-10T18:55:06.745Z,15.97
2018-06-10T18:57:50.287Z,14.37
2018-06-10T19:00:18.862Z,14.03
2018-06-10T19:02:47.715Z,15.40
2018-06-10T19:05:16.698Z,14.90
2018-06-10T19:07:45.296Z,14.97
2018-06-10T19:10:14.522Z,15.63
2018-06-10T19:12:43.346Z,16.30
2018-06-10T19:15:12.890Z,15.67
2018-06-10T19:17:42.371Z,15.53
2018-06-10T19:20:11.201Z,15.53
2018-06-10T19:22:39.782Z,15.90
2018-06-10T19:25:08.501Z,15.63
2018-06-10T19:27:37.196Z,15.20
2018-06-10T19:30:05.847Z,16.03
2018-06-10T19:32:34.541Z,15.57
2018-06-10T19:35:03.758Z,16.17
2018-06-10T19:37:32.868Z,15.60
2018-06-10T19:40:02.180Z,14.87
2018-06-10T19:42:31.602Z,16.53
2018-06-10T19:45:02.059Z,16.03
2018-06-10T19:47:31.124Z,16.93
2018-06-10T19:50:03.655Z,15.87
2018-06-10T19:52:33.819Z,17.10
2018-06-10T19:55:02.976Z,17.47
2018-06-10T19:57:32.926Z,16.77
2018-06-10T20:00:02.442Z,15.70
2018-06-10T20:02:31.683Z,17.03
2018-06-10T20:05:00.251Z,17.20
2018-06-10T20:07:29.216Z,16.37
2018-06-10T20:09:58.638Z,15.67
2018-06-10T20:12:27.659Z,17.10
2018-06-10T20:14:56.799Z,16.90
2018-06-10T20:17:27.605Z,17.37
2018-06-10T20:19:59.287Z,18.23
2018-06-10T20:22:27.852Z,17.97
2018-06-10T20:24:56.508Z,17.90
2018-06-10T20:27:25.117Z,18.40
2018-06-10T20:29:54.396Z,18.30
2018-06-10T20:32:24.537Z,17.30
2018-06-10T20:34:53.263Z,17.20
2018-06-10T20:37:22.166Z,18.47
2018-06-10T20:39:50.852Z,18.47
2018-06-10T20:42:19.727Z,18.70
2018-06-10T20:44:48.546Z,18.73
2018-06-10T20:47:17.586Z,18.57
2018-06-10T20:49:46.855Z,19.67
2018-06-10T20:52:15.401Z,19.47
2018-06-10T20:54:44.259Z,19.13
2018-06-10T20:57:12.841Z,18.73
2018-06-10T20:59:41.356Z,18.50
2018-06-10T21:02:09.918Z,18.57
2018-06-10T21:04:39.345Z,18.33
2018-06-10T21:07:09.039Z,20.43
2018-06-10T21:09:37.969Z,19.10
2018-06-10T21:12:06.607Z,19.63
2018-06-10T21:14:35.254Z,19.30
2018-06-10T21:17:03.800Z,19.73
2018-06-10T21:19:32.330Z,20.50
2018-06-10T21:22:00.865Z,19.20
2018-06-10T21:24:29.398Z,19.00
2018-06-10T21:26:57.897Z,19.73
2018-06-10T21:29:26.977Z,19.10
2018-06-10T21:31:56.539Z,19.60
2018-06-10T21:34:25.438Z,19.60
2018-06-10T21:36:54.076Z,18.07
2018-06-10T21:39:22.605Z,18.50
2018-06-10T21:41:51.390Z,18.97
2018-06-10T21:44:20.082Z,19.03
2018-06-10T21:46:48.607Z,19.07
2018-06-10T21:49:17.433Z,19.37
2018-06-10T21:51:45.925Z,17.63
2018-06-10T21:54:14.506Z,14.97
2018-06-10T21:56:42.966Z,13.30
2018-06-10T21:59:12.086Z,14.53
2018-06-10T22:01:41.258Z,15.20
2018-06-10T22:04:09.812Z,13.97
2018-06-10T22:06:38.361Z,14.03
2018-06-10T22:09:07.954Z,14.30
2018-06-10T22:11:37.046Z,14.00
2018-06-10T22:14:05.658Z,12.33
2018-06-10T22:16:34.603Z,12.93
2018-06-10T22:19:03.146Z,12.97
2018-06-10T22:21:32.717Z,13.17
2018-06-10T22:24:02.036Z,13.83
2018-06-10T22:26:30.595Z,13.17
2018-06-10T22:28:59.539Z,13.67
2018-06-10T22:31:28.358Z,11.93
2018-06-10T22:33:56.871Z,12.53
2018-06-10T22:36:25.405Z,12.30
2018-06-10T22:38:53.962Z,12.67
2018-06-10T22:41:22.462Z,11.90
2018-06-10T22:43:51.074Z,12.90
2018-06-10T22:46:19.561Z,14.00
2018-06-10T22:48:48.162Z,13.13
2018-06-10T22:51:16.763Z,13.53
2018-06-10T22:54:21.431Z,13.07
2018-06-10T22:56:50.025Z,13.93
2018-06-10T22:59:18.595Z,13.40
2018-06-10T23:01:47.178Z,13.37
2018-06-10T23:04:15.825Z,12.53
2018-06-10T23:06:46.170Z,12.70
2018-06-10T23:09:15.706Z,13.17
2018-06-10T23:11:44.787Z,12.60
2018-06-10T23:14:14.306Z,13.10
2018-06-10T23:16:42.891Z,13.30
2018-06-10T23:19:11.711Z,11.47
2018-06-10T23:21:40.290Z,12.43
2018-06-10T23:24:08.936Z,11.90
2018-06-10T23:26:41.634Z,11.77
2018-06-10T23:29:10.274Z,11.63
2018-06-10T23:31:38.868Z,12.33
2018-06-10T23:34:07.506Z,11.27
2018-06-10T23:36:36.097Z,11.73
2018-06-10T23:39:07.029Z,11.87
2018-06-10T23:41:35.267Z,12.83
2018-06-10T23:44:03.867Z,12.17
2018-06-10T23:46:32.418Z,12.40
2018-06-10T23:49:01.852Z,12.53
2018-06-10T23:51:30.429Z,11.60
2018-06-10T23:53:58.991Z,12.07
2018-06-10T23:56:27.510Z,12.03
2018-06-10T23:58:56.811Z,12.23
